createdAt,value
2017-04-11T00:00:17.518Z,0
2017-04-11T00:00:57.958Z,0
2017-04-11T00:01:38.505Z,0
2017-04-11T00:02:18.964Z,0
2017-04-11T00:02:59.450Z,0
2017-04-11T00:03:39.962Z,0
2017-04-11T00:04:20.431Z,0
2017-04-11T00:05:00.957Z,0
2017-04-11T00:05:41.469Z,0
2017-04-11T00:06:21.937Z,0
2017-04-11T00:07:02.412Z,0
2017-04-11T00:07:43.004Z,0
2017-04-11T00:08:23.471Z,0
2017-04-11T00:09:03.971Z,0
2017-04-11T00:09:44.468Z,0
2017-04-11T00:10:24.951Z,0
2017-04-11T00:11:05.427Z,0
2017-04-11T00:11:45.944Z,0
2017-04-11T00:12:26.504Z,0
2017-04-11T00:13:06.956Z,0
2017-04-11T00:13:47.519Z,0
2017-04-11T00:14:27.951Z,0
2017-04-11T00:15:08.490Z,0
2017-04-11T00:15:48.915Z,0
2017-04-11T00:16:29.457Z,0
2017-04-11T00:17:09.948Z,0
2017-04-11T00:17:50.394Z,0
2017-04-11T00:18:30.896Z,0
2017-04-11T00:19:11.363Z,0
2017-04-11T00:19:51.858Z,0
2017-04-11T00:20:32.463Z,0
2017-04-11T00:21:12.957Z,0
2017-04-11T00:21:53.408Z,0
2017-04-11T00:22:33.973Z,0
2017-04-11T00:23:14.402Z,0
2017-04-11T00:23:54.951Z,0
2017-04-11T00:24:35.384Z,0
2017-04-11T00:25:15.897Z,0
2017-04-11T00:25:56.451Z,0
2017-04-11T00:26:36.928Z,0
2017-04-11T00:27:17.469Z,0
2017-04-11T00:27:58.025Z,0
2017-04-11T00:28:38.499Z,0
2017-04-11T00:29:18.984Z,0
2017-04-11T00:29:59.509Z,0
2017-04-11T00:30:39.998Z,0
2017-04-11T00:31:20.503Z,0
2017-04-11T00:32:00.945Z,0
2017-04-11T00:32:41.446Z,0
2017-04-11T00:33:21.930Z,0
2017-04-11T00:34:02.403Z,0
2017-04-11T00:34:42.938Z,0
2017-04-11T00:35:23.397Z,0
2017-04-11T00:36:03.910Z,0
2017-04-11T00:36:44.395Z,0
2017-04-11T00:37:24.894Z,0
2017-04-11T00:38:05.383Z,0
2017-04-11T00:38:45.847Z,0
2017-04-11T00:39:26.364Z,0
2017-04-11T00:40:06.871Z,0
2017-04-11T00:40:47.342Z,0
2017-04-11T00:41:27.844Z,0
2017-04-11T00:42:08.385Z,0
2017-04-11T00:42:48.914Z,0
2017-04-11T00:43:29.386Z,0
2017-04-11T00:44:09.919Z,0
2017-04-11T00:44:50.379Z,0
2017-04-11T00:45:31.021Z,0
2017-04-11T00:46:11.494Z,0
2017-04-11T00:46:51.988Z,0
2017-04-11T00:47:32.444Z,0
2017-04-11T00:48:12.926Z,0
2017-04-11T00:48:53.469Z,0
2017-04-11T00:49:33.970Z,0
2017-04-11T00:50:14.482Z,0
2017-04-11T00:50:55.006Z,0
2017-04-11T00:51:35.488Z,0
2017-04-11T00:52:16.064Z,0
2017-04-11T00:52:56.528Z,0
2017-04-11T00:53:36.972Z,0
2017-04-11T00:54:17.465Z,0
2017-04-11T00:54:57.972Z,0
2017-04-11T00:55:38.495Z,0
2017-04-11T00:56:18.927Z,0
2017-04-11T00:56:59.526Z,0
2017-04-11T00:57:40.011Z,0
2017-04-11T00:58:20.532Z,0
2017-04-11T00:59:01.021Z,0
2017-04-11T00:59:41.514Z,0
2017-04-11T01:00:22.000Z,0
2017-04-11T01:01:02.504Z,0
2017-04-11T01:01:43.027Z,0
2017-04-11T01:02:23.532Z,0
2017-04-11T01:03:04.022Z,0
2017-04-11T01:03:44.505Z,0
2017-04-11T01:04:24.968Z,0
2017-04-11T01:05:05.456Z,0
2017-04-11T01:05:45.979Z,0
2017-04-11T01:06:26.534Z,0
2017-04-11T01:07:07.021Z,0
2017-04-11T01:07:47.523Z,0
2017-04-11T01:08:27.992Z,0
2017-04-11T01:09:08.452Z,0
2017-04-11T01:09:49.000Z,0
2017-04-11T01:10:29.509Z,0
2017-04-11T01:11:09.954Z,0
2017-04-11T01:11:50.471Z,0
2017-04-11T01:12:30.954Z,0
2017-04-11T01:13:11.476Z,0
2017-04-11T01:13:52.004Z,0
2017-04-11T01:14:32.466Z,0
2017-04-11T01:15:12.943Z,0
2017-04-11T01:15:53.413Z,0
2017-04-11T01:16:33.946Z,0
2017-04-11T01:17:14.418Z,0
2017-04-11T01:17:54.971Z,0
2017-04-11T01:18:35.440Z,0
2017-04-11T01:19:15.961Z,0
2017-04-11T01:19:56.408Z,0
2017-04-11T01:20:36.916Z,0
2017-04-11T01:21:17.373Z,0
2017-04-11T01:21:57.910Z,0
2017-04-11T01:22:38.405Z,0
2017-04-11T01:23:18.858Z,0
2017-04-11T01:23:59.338Z,0
2017-04-11T01:24:39.810Z,0
2017-04-11T01:25:20.335Z,0
2017-04-11T01:26:00.831Z,0
2017-04-11T01:26:41.308Z,0
2017-04-11T01:27:21.785Z,0
2017-04-11T01:28:02.286Z,0
2017-04-11T01:28:42.747Z,0
2017-04-11T01:29:23.253Z,0
2017-04-11T01:30:03.741Z,0
2017-04-11T01:30:44.203Z,0
2017-04-11T01:31:24.719Z,0
2017-04-11T01:32:05.187Z,0
2017-04-11T01:32:45.660Z,0
2017-04-11T01:33:26.138Z,0
2017-04-11T01:34:06.606Z,0
2017-04-11T01:34:47.139Z,0
2017-04-11T01:35:27.573Z,0
2017-04-11T01:36:08.071Z,0
2017-04-11T01:36:48.555Z,0
2017-04-11T01:37:29.023Z,0
2017-04-11T01:38:09.538Z,0
2017-04-11T01:38:49.987Z,0
2017-04-11T01:39:30.530Z,0
2017-04-11T01:40:11.027Z,0
2017-04-11T01:40:51.469Z,0
2017-04-11T01:41:31.932Z,0
2017-04-11T01:42:12.427Z,0
2017-04-11T01:42:52.957Z,0
2017-04-11T01:43:33.386Z,0
2017-04-11T01:44:13.877Z,0
2017-04-11T01:44:54.392Z,0
2017-04-11T01:45:34.874Z,0
2017-04-11T01:46:15.382Z,0
2017-04-11T01:46:55.880Z,0
2017-04-11T01:47:36.362Z,0
2017-04-11T01:48:16.814Z,0
2017-04-11T01:48:57.285Z,0
2017-04-11T01:49:38.002Z,0
2017-04-11T01:50:18.530Z,0
2017-04-11T01:50:59.080Z,0
2017-04-11T01:51:39.569Z,0
2017-04-11T01:52:20.075Z,0
2017-04-11T01:53:00.627Z,0
2017-04-11T01:53:41.163Z,0
2017-04-11T01:54:21.686Z,0
2017-04-11T01:55:02.189Z,0
2017-04-11T01:55:42.757Z,0
2017-04-11T01:56:23.226Z,0
2017-04-11T01:57:03.675Z,0
2017-04-11T01:57:44.182Z,0
2017-04-11T01:58:24.677Z,0
2017-04-11T01:59:05.165Z,0
2017-04-11T01:59:45.637Z,0
2017-04-11T02:00:26.171Z,0
2017-04-11T02:01:06.639Z,0
2017-04-11T02:01:47.183Z,0
2017-04-11T02:02:27.636Z,0
2017-04-11T02:03:08.113Z,0
2017-04-11T02:03:48.558Z,0
2017-04-11T02:04:29.063Z,0
2017-04-11T02:05:09.572Z,0
2017-04-11T02:05:50.100Z,0
2017-04-11T02:06:30.593Z,0
2017-04-11T02:07:11.070Z,0
2017-04-11T02:07:51.614Z,0
2017-04-11T02:08:32.068Z,0
2017-04-11T02:09:12.589Z,0
2017-04-11T02:09:53.107Z,0
2017-04-11T02:10:33.550Z,0
2017-04-11T02:11:14.008Z,0
2017-04-11T02:11:54.481Z,0
2017-04-11T02:12:35.057Z,0
2017-04-11T02:13:15.615Z,0
2017-04-11T02:13:56.072Z,0
2017-04-11T02:14:36.534Z,0
2017-04-11T02:15:17.075Z,0
2017-04-11T02:15:57.589Z,0
2017-04-11T02:16:38.059Z,0
2017-04-11T02:17:18.522Z,0
2017-04-11T02:17:59.089Z,0
2017-04-11T02:18:39.576Z,0
2017-04-11T02:19:20.079Z,0
2017-04-11T02:20:00.588Z,0
2017-04-11T02:20:40.999Z,0
2017-04-11T02:21:21.543Z,0
2017-04-11T02:22:02.004Z,0
2017-04-11T02:22:42.497Z,0
2017-04-11T02:23:22.982Z,0
2017-04-11T02:24:03.586Z,0
2017-04-11T02:24:44.006Z,0
2017-04-11T02:25:24.505Z,0
2017-04-11T02:26:05.056Z,0
2017-04-11T02:26:45.599Z,0
2017-04-11T02:27:26.100Z,0
2017-04-11T02:28:06.727Z,0
2017-04-11T02:28:47.196Z,0
2017-04-11T02:29:27.941Z,0
2017-04-11T02:30:08.382Z,0
2017-04-11T02:30:48.852Z,0
2017-04-11T02:31:29.360Z,0
2017-04-11T02:32:09.878Z,0
2017-04-11T02:32:50.378Z,0
2017-04-11T02:33:30.967Z,0
2017-04-11T02:34:11.418Z,0
2017-04-11T02:34:51.934Z,0
2017-04-11T02:35:32.491Z,0
2017-04-11T02:36:13.010Z,0
2017-04-11T02:36:53.501Z,0
2017-04-11T02:37:33.991Z,0
2017-04-11T02:38:14.604Z,0
2017-04-11T02:38:55.090Z,0
2017-04-11T02:39:35.629Z,0
2017-04-11T02:40:16.116Z,0
2017-04-11T02:40:56.640Z,0
2017-04-11T02:41:37.144Z,0
2017-04-11T02:42:17.623Z,0
2017-04-11T02:42:58.073Z,0
2017-04-11T02:43:38.554Z,0
2017-04-11T02:44:19.029Z,0
2017-04-11T02:44:59.590Z,0
2017-04-11T02:45:40.122Z,0
2017-04-11T02:46:20.622Z,0
2017-04-11T02:47:01.141Z,0
2017-04-11T02:47:41.631Z,0
2017-04-11T02:48:22.120Z,0
2017-04-11T02:49:02.592Z,0
2017-04-11T02:49:43.141Z,0
2017-04-11T02:50:23.648Z,0
2017-04-11T02:51:04.107Z,0
2017-04-11T02:51:44.580Z,0
2017-04-11T02:52:25.103Z,0
2017-04-11T02:53:05.614Z,0
2017-04-11T02:53:46.141Z,0
2017-04-11T02:54:26.625Z,0
2017-04-11T02:55:07.141Z,0
2017-04-11T02:55:47.618Z,0
2017-04-11T02:56:28.118Z,0
2017-04-11T02:57:08.570Z,0
2017-04-11T02:57:49.035Z,0
2017-04-11T02:58:29.572Z,0
2017-04-11T02:59:10.118Z,0
2017-04-11T02:59:50.594Z,0
2017-04-11T03:00:31.048Z,0
2017-04-11T03:01:11.615Z,0
2017-04-11T03:01:52.095Z,0
2017-04-11T03:02:32.577Z,0
2017-04-11T03:03:13.115Z,0
2017-04-11T03:03:53.599Z,0
2017-04-11T03:04:34.146Z,0
2017-04-11T03:05:14.640Z,0
2017-04-11T03:05:55.161Z,0
2017-04-11T03:06:35.660Z,0
2017-04-11T03:07:16.161Z,0
2017-04-11T03:07:56.664Z,0
2017-04-11T03:08:37.187Z,0
2017-04-11T03:09:17.620Z,0
2017-04-11T03:09:58.325Z,0
2017-04-11T03:10:38.840Z,0
2017-04-11T03:11:19.371Z,0
2017-04-11T03:11:59.840Z,0
2017-04-11T03:12:40.379Z,0
2017-04-11T03:13:20.841Z,0
2017-04-11T03:14:01.370Z,0
2017-04-11T03:14:41.862Z,0
2017-04-11T03:15:22.329Z,0
2017-04-11T03:16:02.809Z,0
2017-04-11T03:16:43.332Z,0
2017-04-11T03:17:23.824Z,0
2017-04-11T03:18:04.309Z,0
2017-04-11T03:18:44.753Z,0
2017-04-11T03:19:25.262Z,0
2017-04-11T03:20:05.717Z,0
2017-04-11T03:20:46.236Z,0
2017-04-11T03:21:26.674Z,0
2017-04-11T03:22:07.166Z,0
2017-04-11T03:22:47.672Z,0
2017-04-11T03:23:28.135Z,0
2017-04-11T03:24:08.600Z,0
2017-04-11T03:24:49.068Z,0
2017-04-11T03:25:29.633Z,0
2017-04-11T03:26:10.116Z,0
2017-04-11T03:26:50.593Z,0
2017-04-11T03:27:31.174Z,0
2017-04-11T03:28:11.719Z,0
2017-04-11T03:28:52.179Z,0
2017-04-11T03:29:32.670Z,0
2017-04-11T03:30:13.138Z,0
2017-04-11T03:30:53.629Z,0
2017-04-11T03:31:34.102Z,0
2017-04-11T03:32:14.679Z,0
2017-04-11T03:32:55.140Z,0
2017-04-11T03:33:35.662Z,0
2017-04-11T03:34:16.176Z,0
2017-04-11T03:34:56.616Z,0
2017-04-11T03:35:37.098Z,0
2017-04-11T03:36:17.553Z,0
2017-04-11T03:36:58.044Z,0
2017-04-11T03:37:38.547Z,0
2017-04-11T03:38:19.077Z,0
2017-04-11T03:38:59.576Z,0
2017-04-11T03:39:40.046Z,0
2017-04-11T03:40:20.545Z,0
2017-04-11T03:41:01.033Z,0
2017-04-11T03:41:41.548Z,0
2017-04-11T03:42:22.005Z,0
2017-04-11T03:43:02.519Z,0
2017-04-11T03:43:43.224Z,0
2017-04-11T03:44:23.695Z,0
2017-04-11T03:45:04.223Z,0
2017-04-11T03:45:44.712Z,0
2017-04-11T03:46:25.211Z,0
2017-04-11T03:47:05.729Z,0
2017-04-11T03:47:46.219Z,0
2017-04-11T03:48:26.652Z,0
2017-04-11T03:49:07.192Z,0
2017-04-11T03:49:47.666Z,0
2017-04-11T03:50:28.141Z,0
2017-04-11T03:51:08.686Z,0
2017-04-11T03:51:49.121Z,0
2017-04-11T03:52:29.661Z,0
2017-04-11T03:53:10.151Z,0
2017-04-11T03:53:50.670Z,0
2017-04-11T03:54:31.147Z,0
2017-04-11T03:55:11.634Z,0
2017-04-11T03:55:52.154Z,0
2017-04-11T03:56:32.627Z,0
2017-04-11T03:57:13.096Z,0
2017-04-11T03:57:53.547Z,4
2017-04-11T03:58:34.073Z,4
2017-04-11T03:59:14.527Z,4
2017-04-11T03:59:55.033Z,0
2017-04-11T04:00:35.478Z,0
2017-04-11T04:01:16.016Z,4
2017-04-11T04:01:56.541Z,4
2017-04-11T04:02:37.023Z,0
2017-04-11T04:03:17.481Z,4
2017-04-11T04:03:58.050Z,4
2017-04-11T04:04:38.524Z,4
2017-04-11T04:05:19.020Z,4
2017-04-11T04:05:59.471Z,8
2017-04-11T04:06:39.992Z,8
2017-04-11T04:07:20.594Z,8
2017-04-11T04:08:01.046Z,8
2017-04-11T04:08:41.562Z,8
2017-04-11T04:09:22.050Z,12
2017-04-11T04:11:48.190Z,16
2017-04-11T04:12:36.640Z,16
2017-04-11T04:13:25.677Z,16
2017-04-11T04:14:14.185Z,24
2017-04-11T04:15:03.431Z,28
2017-04-11T04:15:52.130Z,28
2017-04-11T04:16:40.513Z,32
2017-04-11T04:17:29.254Z,36
2017-04-11T04:18:18.030Z,40
2017-04-11T04:19:06.687Z,48
2017-04-11T04:19:55.171Z,56
2017-04-11T04:20:44.017Z,60
2017-04-11T04:21:32.854Z,64
2017-04-11T04:22:21.517Z,72
2017-04-11T04:23:10.155Z,80
2017-04-11T04:23:59.467Z,88
2017-04-11T04:24:47.742Z,96
2017-04-11T04:25:36.181Z,108
2017-04-11T04:26:24.696Z,116
2017-04-11T04:27:13.582Z,128
2017-04-11T04:28:02.179Z,140
2017-04-11T04:28:51.167Z,152
2017-04-11T04:29:40.023Z,164
2017-04-11T04:30:28.484Z,176
2017-04-11T04:31:17.052Z,192
2017-04-11T04:32:05.587Z,208
2017-04-11T04:32:54.944Z,220
2017-04-11T04:33:43.498Z,236
2017-04-11T04:34:32.310Z,252
2017-04-11T04:35:20.875Z,272
2017-04-11T04:36:10.011Z,288
2017-04-11T04:36:58.517Z,308
2017-04-11T04:37:47.004Z,324
2017-04-11T04:38:35.876Z,344
2017-04-11T04:39:24.250Z,364
2017-04-11T04:40:13.517Z,384
2017-04-11T04:41:01.937Z,408
2017-04-11T04:41:50.595Z,428
2017-04-11T04:42:39.238Z,452
2017-04-11T04:43:27.801Z,472
2017-04-11T04:44:16.752Z,500
2017-04-11T04:45:05.356Z,524
2017-04-11T04:45:53.963Z,544
2017-04-11T04:46:42.969Z,572
2017-04-11T04:47:31.541Z,592
2017-04-11T04:48:20.485Z,620
2017-04-11T04:49:07.743Z,648
2017-04-11T04:49:56.447Z,672
2017-04-11T04:52:17.937Z,744
2017-04-11T04:53:06.673Z,768
2017-04-11T04:53:55.165Z,796
2017-04-11T04:54:44.095Z,824
2017-04-11T04:55:32.772Z,856
2017-04-11T04:56:21.228Z,880
2017-04-11T04:57:10.219Z,908
2017-04-11T04:57:58.703Z,928
2017-04-11T04:58:47.588Z,960
2017-04-11T04:59:36.122Z,988
2017-04-11T05:00:24.581Z,1012
2017-04-11T05:01:13.259Z,1040
2017-04-11T05:02:02.220Z,1064
2017-04-11T05:02:50.412Z,1088
2017-04-11T05:03:39.084Z,1112
2017-04-11T05:04:28.065Z,1140
2017-04-11T05:05:16.394Z,1164
2017-04-11T05:06:05.008Z,1192
2017-04-11T05:06:53.753Z,1216
2017-04-11T05:07:42.628Z,1240
2017-04-11T05:08:31.383Z,1268
2017-04-11T05:09:19.705Z,1296
2017-04-11T05:10:08.349Z,1324
2017-04-11T05:10:56.896Z,1356
2017-04-11T05:11:45.906Z,1372
2017-04-11T05:12:34.605Z,1376
2017-04-11T05:13:23.357Z,1348
2017-04-11T05:14:11.543Z,1352
2017-04-11T05:15:00.757Z,1376
2017-04-11T05:15:49.705Z,1400
2017-04-11T05:16:38.217Z,1408
2017-04-11T05:17:26.762Z,1412
2017-04-11T05:18:15.255Z,1424
2017-04-11T05:19:04.494Z,1452
2017-04-11T05:19:52.677Z,1440
2017-04-11T05:20:41.663Z,1468
2017-04-11T05:21:30.270Z,1512
2017-04-11T05:22:18.527Z,1604
2017-04-11T05:23:07.170Z,1748
2017-04-11T05:23:55.907Z,1884
2017-04-11T05:24:51.435Z,1892
2017-04-11T05:25:39.927Z,1944
2017-04-11T05:26:28.806Z,2020
2017-04-11T05:27:17.725Z,1972
2017-04-11T05:28:05.848Z,1864
2017-04-11T05:28:54.768Z,1760
2017-04-11T05:29:43.231Z,1900
2017-04-11T05:30:32.112Z,1840
2017-04-11T05:31:20.417Z,1844
2017-04-11T05:32:09.280Z,1724
2017-04-11T05:32:57.934Z,1764
2017-04-11T05:33:46.653Z,1584
2017-04-11T05:34:35.428Z,1456
2017-04-11T05:35:24.046Z,1436
2017-04-11T05:36:12.744Z,1448
2017-04-11T05:37:01.303Z,1808
2017-04-11T05:37:51.171Z,2112
2017-04-11T05:38:39.932Z,1788
2017-04-11T05:39:28.648Z,1712
2017-04-11T05:40:17.611Z,1932
2017-04-11T05:41:06.914Z,1964
2017-04-11T05:41:55.694Z,1756
2017-04-11T05:42:44.624Z,1848
2017-04-11T05:43:32.960Z,1976
2017-04-11T05:44:21.961Z,2136
2017-04-11T05:45:10.571Z,2004
2017-04-11T05:45:59.074Z,2052
2017-04-11T05:46:47.410Z,2048
2017-04-11T05:47:37.164Z,2076
2017-04-11T05:48:25.703Z,1956
2017-04-11T05:49:14.675Z,1936
2017-04-11T05:50:02.811Z,1948
2017-04-11T05:50:51.458Z,1964
2017-04-11T05:51:40.176Z,1996
2017-04-11T05:52:28.843Z,1980
2017-04-11T05:53:17.666Z,2004
2017-04-11T05:54:06.798Z,2008
2017-04-11T05:54:55.525Z,2024
2017-04-11T05:55:43.984Z,2036
2017-04-11T05:56:32.492Z,2040
2017-04-11T05:57:21.378Z,2052
2017-04-11T05:58:10.109Z,2088
2017-04-11T05:58:58.861Z,2104
2017-04-11T05:59:47.606Z,2120
2017-04-11T06:00:35.979Z,2324
2017-04-11T06:01:24.450Z,2336
2017-04-11T06:02:15.026Z,2352
2017-04-11T06:03:05.306Z,2360
2017-04-11T06:03:54.236Z,2368
2017-04-11T06:04:43.100Z,2372
2017-04-11T06:05:31.417Z,2384
2017-04-11T06:06:21.352Z,2396
2017-04-11T06:07:09.604Z,2408
2017-04-11T06:08:00.088Z,2420
2017-04-11T06:08:49.758Z,2432
2017-04-11T06:09:37.902Z,2440
2017-04-11T06:10:26.395Z,2452
2017-04-11T06:11:15.728Z,2468
2017-04-11T06:12:04.224Z,2488
2017-04-11T06:12:52.942Z,2512
2017-04-11T06:13:41.886Z,2544
2017-04-11T06:14:30.500Z,2588
2017-04-11T06:15:19.011Z,2612
2017-04-11T06:16:08.212Z,2596
2017-04-11T06:16:56.755Z,2600
2017-04-11T06:17:47.309Z,2632
2017-04-11T06:18:36.210Z,2676
2017-04-11T06:19:25.035Z,2744
2017-04-11T06:20:14.901Z,2736
2017-04-11T06:21:03.078Z,2696
2017-04-11T06:21:51.851Z,2656
2017-04-11T06:22:40.554Z,2648
2017-04-11T06:23:29.840Z,2680
2017-04-11T06:24:18.643Z,2724
2017-04-11T06:25:08.258Z,2768
2017-04-11T06:25:58.343Z,2752
2017-04-11T06:28:44.883Z,2756
2017-04-11T06:29:33.797Z,2716
2017-04-11T06:30:23.502Z,2700
2017-04-11T06:31:13.013Z,2708
2017-04-11T06:32:02.317Z,2716
2017-04-11T06:32:52.561Z,2720
2017-04-11T06:33:40.718Z,2728
2017-04-11T06:34:29.693Z,2740
2017-04-11T06:35:18.176Z,2748
2017-04-11T06:36:07.768Z,2744
2017-04-11T06:36:56.695Z,2744
2017-04-11T06:37:45.175Z,2628
2017-04-11T06:38:33.988Z,2760
2017-04-11T06:39:23.460Z,2772
2017-04-11T06:40:12.272Z,2796
2017-04-11T06:41:00.805Z,2816
2017-04-11T06:41:50.213Z,2852
2017-04-11T06:42:39.794Z,2904
2017-04-11T06:43:28.647Z,2988
2017-04-11T06:44:17.295Z,3096
2017-04-11T06:45:05.894Z,3248
2017-04-11T06:45:55.244Z,3388
2017-04-11T06:46:43.981Z,3528
2017-04-11T06:47:32.445Z,3768
2017-04-11T06:48:22.155Z,3704
2017-04-11T06:49:11.372Z,3364
2017-04-11T06:50:00.304Z,3252
2017-04-11T06:50:48.961Z,3276
2017-04-11T06:51:37.774Z,3372
2017-04-11T06:52:27.582Z,4028
2017-04-11T06:53:16.260Z,4504
2017-04-11T06:54:05.422Z,5544
2017-04-11T06:54:54.370Z,6900
2017-04-11T06:55:43.290Z,5152
2017-04-11T06:56:32.354Z,4348
2017-04-11T06:57:21.224Z,4972
2017-04-11T06:58:09.626Z,6384
2017-04-11T06:58:59.081Z,6472
2017-04-11T06:59:49.140Z,5824
2017-04-11T07:00:37.266Z,4896
2017-04-11T07:01:26.115Z,4664
2017-04-11T07:02:15.490Z,4496
2017-04-11T07:03:03.967Z,4636
2017-04-11T07:03:54.404Z,4912
2017-04-11T07:04:43.466Z,5328
2017-04-11T07:08:10.495Z,5056
2017-04-11T07:08:59.560Z,4888
2017-04-11T07:09:48.424Z,4892
2017-04-11T07:10:37.110Z,5180
2017-04-11T07:11:25.558Z,5264
2017-04-11T07:12:14.924Z,5596
2017-04-11T07:13:04.506Z,6012
2017-04-11T07:20:04.130Z,5884
2017-04-11T07:21:04.713Z,5792
2017-04-11T07:23:59.761Z,4804
2017-04-11T07:24:53.553Z,4408
2017-04-11T07:25:51.710Z,3784
2017-04-11T07:35:53.803Z,5044
2017-04-11T07:36:49.711Z,5292
2017-04-11T07:37:41.636Z,5580
2017-04-11T07:38:51.307Z,5292
2017-04-11T07:39:42.608Z,5000
2017-04-11T07:40:37.847Z,4676
2017-04-11T07:41:27.954Z,4572
2017-04-11T07:42:17.773Z,4072
2017-04-11T07:43:06.167Z,3584
2017-04-11T07:43:54.721Z,3352
2017-04-11T07:44:44.732Z,3352
2017-04-11T07:45:36.982Z,3356
2017-04-11T07:46:28.276Z,3348
2017-04-11T07:47:19.187Z,3332
2017-04-11T07:48:08.233Z,3392
2017-04-11T07:48:56.512Z,3328
2017-04-11T07:49:45.869Z,3400
2017-04-11T07:50:31.489Z,3412
2017-04-11T07:51:17.907Z,3436
2017-04-11T07:52:06.524Z,3472
2017-04-11T07:52:55.061Z,3484
2017-04-11T07:53:44.805Z,3456
2017-04-11T07:54:34.028Z,3468
2017-04-11T07:55:22.417Z,3504
2017-04-11T07:56:10.935Z,3544
2017-04-11T07:56:59.707Z,3576
2017-04-11T07:57:48.660Z,3616
2017-04-11T07:58:36.880Z,3640
2017-04-11T07:59:25.867Z,3704
2017-04-11T08:00:14.389Z,3760
2017-04-11T08:01:03.093Z,3868
2017-04-11T08:01:52.264Z,4004
2017-04-11T08:04:45.826Z,5064
2017-04-11T08:05:35.033Z,5896
2017-04-11T08:06:23.714Z,6528
2017-04-11T08:07:14.953Z,6228
2017-04-11T08:08:07.061Z,6784
2017-04-11T08:08:54.544Z,9084
2017-04-11T08:09:43.504Z,9632
2017-04-11T08:10:31.773Z,8644
2017-04-11T08:11:21.076Z,9020
2017-04-11T08:12:09.890Z,10080
2017-04-11T08:12:58.538Z,11424
2017-04-11T08:13:47.350Z,11468
2017-04-11T08:14:33.684Z,10972
2017-04-11T08:15:21.609Z,10940
2017-04-11T08:16:12.868Z,9792
2017-04-11T08:17:01.400Z,9004
2017-04-11T08:17:50.192Z,8588
2017-04-11T08:18:38.867Z,8372
2017-04-11T08:19:29.427Z,8464
2017-04-11T08:20:17.987Z,7992
2017-04-11T08:20:59.511Z,7400
2017-04-11T08:21:40.212Z,6848
2017-04-11T08:22:20.682Z,6508
2017-04-11T08:23:01.457Z,6136
2017-04-11T08:23:41.893Z,5920
2017-04-11T08:24:22.508Z,5560
2017-04-11T08:25:02.951Z,5200
2017-04-11T08:25:43.675Z,4900
2017-04-11T08:26:25.132Z,4668
2017-04-11T08:27:07.071Z,4628
2017-04-11T08:27:47.013Z,4640
2017-04-11T08:28:27.467Z,4664
2017-04-11T08:29:07.984Z,4668
2017-04-11T08:29:48.453Z,4612
2017-04-11T08:30:29.585Z,4636
2017-04-11T08:31:10.700Z,4760
2017-04-11T08:31:51.123Z,5196
2017-04-11T08:34:39.684Z,7004
2017-04-11T08:35:32.345Z,8488
2017-04-11T08:36:21.838Z,9216
2017-04-11T08:37:13.530Z,7340
2017-04-11T08:38:02.566Z,7300
2017-04-11T08:40:46.259Z,6396
2017-04-11T08:41:35.002Z,5356
2017-04-11T08:42:23.595Z,5160
2017-04-11T08:43:12.564Z,4564
2017-04-11T08:44:01.293Z,4396
2017-04-11T08:44:51.231Z,4488
2017-04-11T08:45:38.798Z,5012
2017-04-11T08:46:28.565Z,6044
2017-04-11T08:47:17.166Z,7376
2017-04-11T08:48:06.188Z,8620
2017-04-11T08:48:55.148Z,9360
2017-04-11T08:49:43.650Z,9692
2017-04-11T08:50:32.566Z,8784
2017-04-11T08:51:21.670Z,8100
2017-04-11T08:52:10.600Z,7740
2017-04-11T08:52:59.142Z,8096
2017-04-11T08:53:47.957Z,9700
2017-04-11T08:54:36.986Z,10936
2017-04-11T08:55:25.103Z,13884
2017-04-11T08:56:06.894Z,14732
2017-04-11T08:56:47.410Z,13484
2017-04-11T08:57:27.869Z,12328
2017-04-11T08:58:08.572Z,14048
2017-04-11T08:58:49.124Z,15140
2017-04-11T08:59:29.598Z,14892
2017-04-11T09:00:10.187Z,13852
2017-04-11T09:00:50.736Z,12992
2017-04-11T09:01:31.540Z,11276
2017-04-11T09:02:12.031Z,10524
2017-04-11T09:02:52.536Z,10416
2017-04-11T09:03:33.751Z,10132
2017-04-11T09:04:22.169Z,10112
2017-04-11T09:05:12.569Z,10524
2017-04-11T09:05:56.254Z,10800
2017-04-11T09:06:36.789Z,10424
2017-04-11T09:07:17.322Z,9952
2017-04-11T09:07:57.822Z,9468
2017-04-11T09:08:38.275Z,8732
2017-04-11T09:09:18.805Z,8048
2017-04-11T09:09:59.257Z,7788
2017-04-11T09:10:39.752Z,7788
2017-04-11T09:11:20.293Z,8096
2017-04-11T09:12:04.562Z,9080
2017-04-11T09:12:44.944Z,10652
2017-04-11T09:13:25.419Z,10996
2017-04-11T09:14:05.922Z,10384
2017-04-11T09:14:46.492Z,9608
2017-04-11T09:15:27.244Z,8584
2017-04-11T09:16:07.723Z,7756
2017-04-11T09:16:48.272Z,7340
2017-04-11T09:17:28.787Z,6908
2017-04-11T09:18:09.268Z,6420
2017-04-11T09:18:49.843Z,5940
2017-04-11T09:19:30.277Z,5472
2017-04-11T09:20:10.783Z,5408
2017-04-11T09:20:51.365Z,5024
2017-04-11T09:21:31.898Z,4908
2017-04-11T09:22:15.793Z,5052
2017-04-11T09:24:43.171Z,4824
2017-04-11T09:25:34.723Z,4732
2017-04-11T09:26:23.278Z,4660
2017-04-11T09:27:12.069Z,4684
2017-04-11T09:28:05.514Z,4612
2017-04-11T09:28:51.297Z,4704
2017-04-11T09:29:40.355Z,4908
2017-04-11T09:30:33.630Z,5128
2017-04-11T09:31:22.263Z,6492
2017-04-11T09:32:10.874Z,7848
2017-04-11T09:33:00.075Z,8128
2017-04-11T09:33:41.584Z,8416
2017-04-11T09:34:22.098Z,7772
2017-04-11T09:35:02.599Z,6980
2017-04-11T09:35:43.197Z,8296
2017-04-11T09:36:23.708Z,10096
2017-04-11T09:37:05.076Z,10248
2017-04-11T09:41:17.537Z,10964
2017-04-11T09:42:08.692Z,6808
2017-04-11T09:42:56.779Z,4580
2017-04-11T09:43:45.943Z,4288
2017-04-11T09:44:34.161Z,4884
2017-04-11T09:45:20.882Z,5768
2017-04-11T09:46:01.258Z,6732
2017-04-11T09:46:41.737Z,8180
2017-04-11T09:47:22.206Z,9672
2017-04-11T09:48:02.704Z,11352
2017-04-11T09:48:43.206Z,12752
2017-04-11T09:49:23.683Z,14256
2017-04-11T09:50:04.174Z,15644
2017-04-11T09:50:44.662Z,14836
2017-04-11T09:51:25.145Z,13640
2017-04-11T09:52:05.715Z,13788
2017-04-11T09:52:46.165Z,13832
2017-04-11T09:53:26.742Z,12300
2017-04-11T09:54:07.212Z,10464
2017-04-11T09:54:47.739Z,11260
2017-04-11T09:55:28.272Z,11684
2017-04-11T09:56:08.872Z,12120
2017-04-11T09:56:49.386Z,11844
2017-04-11T09:57:29.858Z,11176
2017-04-11T09:58:10.414Z,10900
2017-04-11T09:58:50.966Z,9912
2017-04-11T09:59:31.565Z,8676
2017-04-11T10:00:12.099Z,7220
2017-04-11T10:00:52.557Z,5376
2017-04-11T10:01:33.134Z,4388
2017-04-11T10:02:13.679Z,3628
2017-04-11T10:02:54.157Z,3520
2017-04-11T10:03:34.615Z,3820
2017-04-11T10:04:15.176Z,3864
2017-04-11T10:04:55.656Z,3868
2017-04-11T10:05:36.186Z,3884
2017-04-11T10:06:16.665Z,3904
2017-04-11T10:06:57.282Z,3928
2017-04-11T10:07:37.764Z,3972
2017-04-11T10:08:19.172Z,4064
2017-04-11T10:08:59.648Z,4248
2017-04-11T10:09:40.161Z,4648
2017-04-11T10:10:20.682Z,5796
2017-04-11T10:11:01.236Z,8572
2017-04-11T10:11:41.667Z,8184
2017-04-11T10:12:22.179Z,7260
2017-04-11T10:13:02.641Z,6068
2017-04-11T10:13:43.256Z,5868
2017-04-11T10:14:27.117Z,6900
2017-04-11T10:15:12.228Z,9216
2017-04-11T10:15:58.105Z,10848
2017-04-11T10:16:40.338Z,11800
2017-04-11T10:17:20.903Z,11460
2017-04-11T10:18:02.523Z,14876
2017-04-11T10:18:43.510Z,17568
2017-04-11T10:19:24.250Z,14780
2017-04-11T10:20:04.967Z,13124
2017-04-11T10:20:45.575Z,11460
2017-04-11T10:21:26.045Z,10664
2017-04-11T10:22:06.499Z,11372
2017-04-11T10:22:47.012Z,11644
2017-04-11T10:23:27.555Z,9756
2017-04-11T10:24:08.040Z,7208
2017-04-11T10:24:48.626Z,6432
2017-04-11T10:25:29.255Z,6684
2017-04-11T10:26:10.903Z,7196
2017-04-11T10:26:52.089Z,7712
2017-04-11T10:27:32.599Z,8264
2017-04-11T10:28:15.639Z,10048
2017-04-11T10:28:55.963Z,11720
2017-04-11T10:29:37.262Z,12340
2017-04-11T10:30:18.592Z,9016
2017-04-11T10:30:59.057Z,8584
2017-04-11T10:31:39.578Z,8800
2017-04-11T10:32:20.004Z,9620
2017-04-11T10:33:00.514Z,11152
2017-04-11T10:33:41.061Z,11956
2017-04-11T10:34:21.595Z,9980
2017-04-11T10:35:02.126Z,8776
2017-04-11T10:35:42.667Z,8776
2017-04-11T10:36:23.184Z,9676
2017-04-11T10:37:03.712Z,11236
2017-04-11T10:37:44.252Z,11084
2017-04-11T10:38:26.270Z,10040
2017-04-11T10:39:07.373Z,7680
2017-04-11T10:39:47.874Z,6748
2017-04-11T10:40:30.263Z,6164
2017-04-11T10:41:10.872Z,6044
2017-04-11T10:41:51.386Z,5880
2017-04-11T10:42:34.725Z,5960
2017-04-11T10:43:15.271Z,6040
2017-04-11T10:43:55.749Z,6448
2017-04-11T10:44:36.386Z,6988
2017-04-11T10:45:16.955Z,7248
2017-04-11T10:45:57.470Z,7300
2017-04-11T10:46:38.962Z,7608